TimeCST,TemperatureF,Dew PointF,Humidity,Sea Level PressureIn,VisibilityMPH,Wind Direction,Wind SpeedMPH,Gust SpeedMPH,PrecipitationIn,Events,Conditions,WindDirDegrees,DateUTC
12:15 AM,39.2,32.0,75,30.08,10.0,NNW,4.6,-,N/A,,Overcast,340,2013-02-15 06:15:00
12:35 AM,39.2,30.2,70,30.08,10.0,NNW,5.8,-,N/A,,Overcast,340,2013-02-15 06:35:00
12:55 AM,39.2,32.0,75,30.09,10.0,NNW,4.6,-,N/A,,Overcast,340,2013-02-15 06:55:00
1:15 AM,37.4,30.2,75,30.10,10.0,NW,4.6,-,N/A,,Overcast,310,2013-02-15 07:15:00
1:35 AM,37.4,26.6,65,30.10,10.0,NNW,6.9,-,N/A,,Mostly Cloudy,330,2013-02-15 07:35:00
1:55 AM,37.4,26.6,65,30.10,10.0,NNW,6.9,-,N/A,,Partly Cloudy,330,2013-02-15 07:55:00
2:15 AM,37.4,26.6,65,30.11,10.0,NW,8.1,-,N/A,,Partly Cloudy,320,2013-02-15 08:15:00
2:55 AM,37.4,26.6,65,30.12,10.0,North,6.9,-,N/A,,Partly Cloudy,350,2013-02-15 08:55:00
3:15 AM,35.6,26.6,70,30.12,10.0,NW,6.9,-,N/A,,Partly Cloudy,320,2013-02-15 09:15:00
3:35 AM,35.6,26.6,70,30.12,10.0,NNW,8.1,-,N/A,,Mostly Cloudy,330,2013-02-15 09:35:00
3:55 AM,35.6,26.6,70,30.13,10.0,North,8.1,-,N/A,,Overcast,350,2013-02-15 09:55:00
4:15 AM,35.6,26.6,70,30.14,10.0,NNW,12.7,-,N/A,,Overcast,330,2013-02-15 10:15:00
4:35 AM,35.6,26.6,70,30.15,10.0,North,10.4,-,N/A,,Mostly Cloudy,350,2013-02-15 10:35:00
4:55 AM,33.8,24.8,70,30.16,10.0,NNW,10.4,-,N/A,,Overcast,340,2013-02-15 10:55:00
5:15 AM,33.8,24.8,70,30.17,10.0,NNW,10.4,-,N/A,,Overcast,340,2013-02-15 11:15:00
5:35 AM,32.0,24.8,75,30.17,10.0,NNW,8.1,-,N/A,,Overcast,330,2013-02-15 11:35:00
5:55 AM,32.0,24.8,75,30.18,10.0,NNW,10.4,-,N/A,,Mostly Cloudy,330,2013-02-15 11:55:00
6:15 AM,32.0,24.8,75,30.19,10.0,NW,11.5,-,N/A,,Overcast,310,2013-02-15 12:15:00
6:35 AM,32.0,24.8,75,30.20,10.0,NW,15.0,-,N/A,,Overcast,310,2013-02-15 12:35:00
6:55 AM,32.0,24.8,75,30.21,10.0,NW,16.1,-,N/A,,Overcast,320,2013-02-15 12:55:00
7:15 AM,32.0,23.0,69,30.22,10.0,NW,16.1,-,N/A,,Overcast,320,2013-02-15 13:15:00
7:35 AM,30.2,23.0,75,30.23,10.0,NNW,15.0,-,N/A,,Overcast,330,2013-02-15 13:35:00
7:55 AM,32.0,23.0,69,30.25,10.0,NNW,15.0,-,N/A,,Overcast,330,2013-02-15 13:55:00
8:15 AM,30.2,21.2,69,30.26,10.0,NNW,15.0,-,N/A,,Overcast,340,2013-02-15 14:15:00
8:35 AM,30.2,17.6,60,30.27,10.0,NW,18.4,24.2,N/A,,Scattered Clouds,310,2013-02-15 14:35:00
8:55 AM,30.2,17.6,60,30.28,10.0,NW,17.3,-,N/A,,Clear,320,2013-02-15 14:55:00
9:15 AM,30.2,14.0,51,30.28,10.0,NNW,13.8,-,N/A,,Clear,330,2013-02-15 15:15:00
9:35 AM,30.2,14.0,51,30.28,10.0,North,11.5,-,N/A,,Partly Cloudy,350,2013-02-15 15:35:00
9:55 AM,32.0,15.8,51,30.28,10.0,NW,12.7,-,N/A,,Partly Cloudy,320,2013-02-15 15:55:00
10:15 AM,32.0,15.8,51,30.29,10.0,NW,11.5,19.6,N/A,,Clear,310,2013-02-15 16:15:00
10:35 AM,32.0,14.0,48,30.28,10.0,NW,13.8,-,N/A,,Clear,320,2013-02-15 16:35:00
10:55 AM,32.0,14.0,48,30.29,10.0,NW,11.5,17.3,N/A,,Clear,310,2013-02-15 16:55:00
11:15 AM,32.0,12.2,44,30.29,10.0,NW,15.0,20.7,N/A,,Clear,310,2013-02-15 17:15:00
11:55 AM,35.6,10.4,35,30.27,10.0,NW,10.4,18.4,N/A,,Clear,320,2013-02-15 17:55:00
12:15 PM,35.6,10.4,35,30.27,10.0,North,10.4,-,N/A,,Clear,350,2013-02-15 18:15:00
12:35 PM,35.6,10.4,35,30.26,10.0,North,10.4,16.1,N/A,,Clear,350,2013-02-15 18:35:00
12:55 PM,35.6,10.4,35,30.25,10.0,NW,15.0,19.6,N/A,,Clear,310,2013-02-15 18:55:00
1:15 PM,37.4,8.6,30,30.25,10.0,North,8.1,-,N/A,,Clear,350,2013-02-15 19:15:00
1:35 PM,37.4,10.4,33,30.25,10.0,NW,10.4,19.6,N/A,,Clear,320,2013-02-15 19:35:00
1:55 PM,37.4,8.6,30,30.24,10.0,NW,10.4,-,N/A,,Clear,320,2013-02-15 19:55:00
2:15 PM,37.4,8.6,30,30.23,10.0,WNW,12.7,16.1,N/A,,Clear,300,2013-02-15 20:15:00
2:35 PM,37.4,10.4,33,30.23,10.0,NW,10.4,-,N/A,,Clear,310,2013-02-15 20:35:00
2:55 PM,37.4,8.6,30,30.23,10.0,WNW,13.8,-,N/A,,Clear,290,2013-02-15 20:55:00
3:15 PM,37.4,8.6,30,30.23,10.0,NW,11.5,17.3,N/A,,Clear,310,2013-02-15 21:15:00
3:35 PM,37.4,8.6,30,30.24,10.0,NW,9.2,16.1,N/A,,Clear,310,2013-02-15 21:35:00
3:55 PM,37.4,8.6,30,30.24,10.0,NNW,5.8,-,N/A,,Clear,340,2013-02-15 21:55:00
4:15 PM,37.4,8.6,30,30.24,10.0,NNW,6.9,-,N/A,,Clear,340,2013-02-15 22:15:00
4:35 PM,37.4,8.6,30,30.24,10.0,NW,8.1,-,N/A,,Clear,310,2013-02-15 22:35:00
4:55 PM,37.4,10.4,33,30.24,10.0,NW,8.1,-,N/A,,Clear,310,2013-02-15 22:55:00
5:15 PM,37.4,10.4,33,30.24,10.0,NNW,4.6,-,N/A,,Clear,340,2013-02-15 23:15:00
5:35 PM,35.6,10.4,35,30.24,10.0,Calm,Calm,-,N/A,,Clear,0,2013-02-15 23:35:00
5:55 PM,35.6,10.4,35,30.24,10.0,North,6.9,-,N/A,,Clear,360,2013-02-15 23:55:00
6:15 PM,33.8,10.4,38,30.24,10.0,Calm,Calm,-,N/A,,Clear,0,2013-02-16 00:15:00
6:35 PM,32.0,10.4,41,30.24,10.0,North,4.6,-,N/A,,Partly Cloudy,350,2013-02-16 00:35:00
6:55 PM,32.0,12.2,44,30.25,10.0,Calm,Calm,-,N/A,,Mostly Cloudy,0,2013-02-16 00:55:00
7:15 PM,32.0,14.0,48,30.25,10.0,NNW,4.6,-,N/A,,Overcast,330,2013-02-16 01:15:00
7:35 PM,32.0,14.0,48,30.25,10.0,Calm,Calm,-,N/A,,Mostly Cloudy,0,2013-02-16 01:35:00
7:55 PM,30.2,15.8,55,30.25,10.0,Calm,Calm,-,N/A,,Mostly Cloudy,0,2013-02-16 01:55:00
8:15 PM,32.0,14.0,48,30.25,10.0,NNW,3.5,-,N/A,,Overcast,330,2013-02-16 02:15:00
8:35 PM,32.0,15.8,51,30.25,10.0,NW,8.1,-,N/A,,Overcast,320,2013-02-16 02:35:00
8:55 PM,32.0,14.0,48,30.25,10.0,NW,9.2,-,N/A,,Overcast,320,2013-02-16 02:55:00
9:15 PM,32.0,14.0,48,30.26,10.0,NW,10.4,-,N/A,,Overcast,320,2013-02-16 03:15:00
9:35 PM,30.2,15.8,55,30.26,10.0,NNW,11.5,-,N/A,,Mostly Cloudy,330,2013-02-16 03:35:00
9:55 PM,28.4,15.8,59,30.26,10.0,NW,9.2,-,N/A,,Clear,320,2013-02-16 03:55:00
10:15 PM,28.4,15.8,59,30.25,10.0,NW,8.1,-,N/A,,Partly Cloudy,320,2013-02-16 04:15:00
10:35 PM,28.4,15.8,59,30.25,10.0,NW,6.9,-,N/A,,Scattered Clouds,320,2013-02-16 04:35:00
10:55 PM,26.6,15.8,64,30.25,10.0,NW,6.9,-,N/A,,Partly Cloudy,320,2013-02-16 04:55:00
11:15 PM,26.6,15.8,64,30.24,10.0,Calm,Calm,-,N/A,,Scattered Clouds,0,2013-02-16 05:15:00
11:35 PM,28.4,15.8,59,30.24,10.0,Calm,Calm,-,N/A,,Partly Cloudy,0,2013-02-16 05:35:00
11:55 PM,26.6,15.8,64,30.24,10.0,NNW,4.6,-,N/A,,Clear,330,2013-02-16 05:55:00